• Join FlightAware (Why Join?)
  • Login
  • US Flag 
09:59PM EDT


 

Airport Tracker/Info


-or-


 

Live Flight TrackerFlight Track Log ✈ N749SS ✈ 06-Nov-2013 ✈ KAPF - CYYZ

Flight Track Log - Related Links

Times and Time Zones

All times are in EST time to prevent confusion due to time zone crossing. See the N749SS flight status page for this flight to view local times or setup timezone preferences in your user account.

Time Position Orientation Groundspeed Altitude Reporting Facility
EST Latitude Longitude Course Direction KTS MPH feet Rate Location/Type
12:20PM 26.2644 -81.7331 North 235 270 7,100  Level Miami Center
12:21PM 26.3417 -81.7339 359° North 256 295 10,000 2,520 Climbing Miami Center
12:22PM 26.4333 -81.7353 359° North 302 348 12,200 1,980 Climbing Miami Center
12:23PM 26.5294 -81.7369 359° North 343 395 14,000 1,980 Climbing Miami Center
12:24PM 26.6378 -81.7392 359° North 369 425 16,200 2,100 Climbing Miami Center
12:25PM 26.8724 -81.7031 North  Level Estimated
12:25PM 26.7506 -81.7414 359° North 391 450 18,200  Level Miami Center
12:26PM 26.8694 -81.7442 359° North 408 470 19,900 1,200 Climbing Miami Center
12:27PM 26.9944 -81.7469 359° North 427 491 20,600 1,380 Climbing Miami Center
12:28PM 27.1228 -81.7806 347° North 461 531 22,700 1,920 Climbing Miami Center
12:29PM 27.2467 -81.8208 344° North 466 536 24,500 1,980 Climbing Miami Center
12:30PM 27.3828 -81.8711 342° North 477 549 26,700 1,980 Climbing Miami Center
12:31PM 27.5086 -81.9139 343° North 472 543 28,500 1,740 Climbing Miami Center
12:32PM 27.6300 -81.9569 343° North 467 537 30,200 1,800 Climbing Miami Center
12:33PM 27.7436 -81.9900 346° North 462 532 32,200 1,920 Climbing Miami Center
12:34PM 27.8561 -81.9386 22° Northeast 426 490 34,100 1,920 Climbing Miami Center
12:35PM 27.9508 -81.8561 38° Northeast 408 470 36,100 1,800 Climbing Miami Center
12:36PM 28.0497 -81.7711 37° Northeast 423 487 37,800 1,380 Climbing Miami Center
12:37PM 28.1464 -81.6928 36° Northeast 428 493 38,900 600 Climbing Miami Center
12:38PM 28.2719 -81.6747 North 428 493 39,000  Climbing Miami Center
12:39PM 28.4017 -81.6661 North 441 507 39,000  Level Miami Center
12:41PM 28.5967 -81.6514 North 503 579 39,000  Level Jacksonville Center
12:42PM 28.7281 -81.6425 North 481 554 39,000  Level Jacksonville Center
12:43PM 28.8553 -81.6339 North 466 536 39,000  Level Jacksonville Center
12:44PM 28.9867 -81.6225 North 461 531 39,000  Level Jacksonville Center
12:45PM 29.1139 -81.6139 North 461 531 39,000  Level Jacksonville Center
12:46PM 29.2433 -81.6003 North 461 531 39,000  Level Jacksonville Center
12:47PM 29.3747 -81.5914 North 461 531 39,000  Level Jacksonville Center
12:48PM 29.5061 -81.5800 North 461 531 39,000  Level Jacksonville Center
12:49PM 29.6333 -81.5689 North 461 531 39,000  Level Jacksonville Center
12:50PM 29.7647 -81.5575 North 461 531 39,000  Level Jacksonville Center
12:51PM 29.9086 -81.5411 North 461 531 39,000  Level Jacksonville Center
12:52PM 30.0378 -81.5272 North 461 531 39,000  Level Jacksonville Center
12:53PM 30.1650 -81.5111 North 461 531 39,000  Level Jacksonville Center
12:54PM 30.2964 -81.4947 North 461 531 39,000  Level Jacksonville Center
12:55PM 30.4258 -81.4833 North 461 531 39,000  Level Jacksonville Center
12:56PM 30.5531 -81.4694 North 461 531 39,000  Level Jacksonville Center
12:57PM 30.6844 -81.4578 North 461 531 39,000  Level Jacksonville Center
12:58PM 30.8117 -81.4436 North 461 531 39,000  Level Jacksonville Center
12:59PM 30.9408 -81.4319 North 461 531 39,000  Level Jacksonville Center
01:00PM 31.0703 -81.4178 North 461 531 39,000  Level Jacksonville Center
01:01PM 31.2017 -81.4036 North 461 531 39,000  Level Jacksonville Center
01:02PM 31.3331 -81.3894 North 463 533 39,000  Level Jacksonville Center
01:03PM 31.4558 -81.3753 North 463 533 39,000  Level Jacksonville Center
01:04PM 31.5747 -81.3611 North 458 527 39,000  Level Jacksonville Center
01:05PM 31.7167 -81.3467 North 458 527 39,000  Level Jacksonville Center
01:06PM 31.8458 -81.3322 North 458 527 39,000  Level Jacksonville Center
01:07PM 31.9792 -81.3153 North 471 542 39,000  Level Jacksonville Center
01:08PM 32.1083 -81.2933 North 471 542 39,000  Level Jacksonville Center
01:09PM 32.2375 -81.2717 North 471 542 39,000  Level Jacksonville Center
01:10PM 32.3667 -81.2494 North 465 535 39,000  Level Jacksonville Center
01:11PM 32.5000 -81.2300 North 471 542 39,000  Level Jacksonville Center
01:12PM 32.6272 -81.2078 North 471 542 39,000  Level Jacksonville Center
01:13PM 32.7561 -81.1831 North 471 542 39,000  Level Jacksonville Center
01:14PM 32.8875 -81.1608 North 471 542 39,000  Level Jacksonville Center
01:15PM 33.0186 -81.1386 North 471 542 39,000  Level Jacksonville Center
01:16PM 33.1478 -81.1186 North 466 536 39,000  Level Jacksonville Center
01:17PM 33.2789 -81.0961 North 466 536 39,000  Level Jacksonville Center
01:18PM 33.4100 -81.0736 North 466 536 39,000  Level Jacksonville Center
01:19PM 33.5392 -81.0486 North 466 536 39,000  Level Jacksonville Center
01:20PM 33.6703 -81.0258 North 466 536 39,000  Level Jacksonville Center
01:21PM 33.8014 -81.0031 North 466 536 39,000  Level Jacksonville Center
01:22PM 33.9283 -80.9803 North 466 536 39,000  Level Jacksonville Center
01:23PM 34.0594 -80.9550 North 466 536 39,000  Level Jacksonville Center
01:24PM 34.1883 -80.9344 North 466 536 39,000  Level Jacksonville Center
01:26PM 34.5050 -80.8831 North 455 524 39,000  Level Atlanta Center
01:27PM 34.6378 -80.8528 11° North 469 540 39,000  Level Atlanta Center
01:28PM 34.7542 -80.8331 North 469 540 39,000  Level Atlanta Center
01:29PM 34.8850 -80.8078 North 469 540 39,000  Level Atlanta Center
01:30PM 35.0158 -80.7850 North 469 540 39,000  Level Atlanta Center
01:31PM 35.1444 -80.7597 North 464 534 39,000  Level Atlanta Center
01:32PM 35.2753 -80.7342 North 469 540 39,000  Level Atlanta Center
01:33PM 35.4061 -80.7111 North 469 540 39,000  Level Atlanta Center
01:34PM 35.5369 -80.6853 North 469 540 39,000  Level Atlanta Center
01:35PM 35.6697 -80.6619 North 469 540 39,000  Level Atlanta Center
01:36PM 35.8006 -80.6361 North 469 540 39,000  Level Atlanta Center
01:37PM 35.9292 -80.6103 North 469 540 39,000  Level Atlanta Center
01:38PM 36.0578 -80.5892 North 477 549 39,000  Level Atlanta Center
01:39PM 36.2050 -80.5625 North 472 543 39,000  Level Atlanta Center
01:40PM 36.3317 -80.5389 North 472 543 39,000  Level Atlanta Center
01:41PM 36.4622 -80.5125 North 472 543 39,000  Level Atlanta Center
01:42PM 36.5908 -80.4914 North 467 537 39,000  Level Atlanta Center
01:44PM 36.8653 -80.4389 North 477 549 39,000  Level Washington Center
01:45PM 36.9933 -80.4183 North 471 542 39,000  Level Washington Center
01:46PM 37.1239 -80.3900 10° North 471 542 39,000  Level Washington Center
01:47PM 37.2669 -80.3653 North 471 542 39,000  Level Washington Center
01:48PM 37.3972 -80.3394 North 466 536 39,000  Level Washington Center
01:49PM 37.5253 -80.3186 North 466 536 39,000  Level Washington Center
01:50PM 37.6556 -80.2925 North 466 536 39,000  Level Washington Center
01:51PM 37.7861 -80.2664 North 466 536 39,000  Level Washington Center
01:52PM 37.9017 -80.2422 North 471 542 39,000  Level Washington Center
01:53PM 38.0297 -80.2183 North 466 536 39,000  Level Washington Center
01:54PM 38.1581 -80.1947 North 466 536 39,000  Level Washington Center
01:55PM 38.2903 -80.1683 North 466 536 39,000  Level Washington Center
01:56PM 38.4164 -80.1444 North 466 536 39,000  Level Washington Center
01:57PM 38.5550 -80.1158 North 466 536 39,000  Level Washington Center
01:58PM 38.6853 -80.0892 North 466 536 39,000  Level Washington Center
01:59PM 38.8156 -80.0653 North 466 536 39,000  Level Washington Center
02:01PM 39.0456 -80.0131 10° North 471 542 39,000  Level Cleveland Center
02:02PM 39.1983 -79.9781 10° North 471 542 39,000  Level Cleveland Center
02:03PM 39.3272 -79.9514 North 471 542 39,000  Level Cleveland Center
02:04PM 39.4567 -79.9258 North 471 542 39,000  Level Cleveland Center
02:05PM 39.5861 -79.8981 North 471 542 39,000  Level Cleveland Center
02:06PM 39.7150 -79.8711 North 472 543 39,000  Level Cleveland Center
02:07PM 39.8450 -79.8447 North 473 544 39,000  Level Cleveland Center
02:08PM 40.0008 -79.8122 North 475 547 39,000  Level Cleveland Center
02:09PM 40.1308 -79.7844 North 477 549 39,000  Level Cleveland Center
02:10PM 40.2592 -79.7583 North 474 545 39,000  Level Cleveland Center
02:12PM 40.3853 -79.7322 North 468 539 39,000  Level Cleveland Center
02:13PM 40.5367 -79.6994 North 465 535 39,000  Level Cleveland Center
02:14PM 40.6642 -79.6722 North 470 541 39,000 -120 Level Cleveland Center
02:15PM 40.7908 -79.6456 North 464 534 38,800 -1,020 Descending Cleveland Center
02:16PM 40.9178 -79.6194 North 465 535 36,900 -1,920 Descending Cleveland Center
02:17PM 41.0428 -79.5919 North 459 528 34,900 -1,440 Descending Cleveland Center
02:18PM 41.1997 -79.5586 North 475 547 34,000 -480 Descending Cleveland Center
02:19PM 41.3319 -79.5297 North 481 554 34,000  Level Cleveland Center
02:20PM 41.4764 -79.4986 North 492 566 34,000  Level Cleveland Center
02:21PM 41.6139 -79.4672 10° North 499 574 34,000 -600 Level Cleveland Center
02:22PM 41.7500 -79.4381 North 498 573 32,800 -1,320 Descending Cleveland Center
02:23PM 41.8856 -79.4075 10° North 497 572 31,300 -1,500 Descending Cleveland Center
02:24PM 42.0217 -79.3800 North 496 571 29,700 -1,800 Descending Cleveland Center
02:25PM 42.1744 -79.3447 10° North 463 533 27,700 -1,740 Descending Cleveland Center
02:26PM 42.2964 -79.3194 North 448 516 26,200 -1,500 Descending Cleveland Center
02:27PM 42.4206 -79.2914 North 451 519 24,700 -1,560 Descending Cleveland Center
02:28PM 42.5514 -79.2783 North 427 491 23,000 -1,500 Descending Cleveland Center
02:29PM 42.6700 -79.2931 355° North 429 494 21,600 -1,440 Descending Cleveland Center
02:30PM 42.8028 -79.3061 356° North 472 543 20,100 -1,500 Descending Cleveland Center
02:31PM 42.9328 -79.3183 356° North 469 540 18,600 -1,620 Descending Cleveland Center
02:32PM 43.0500 -79.3167 North 450 518 17,100 -1,620 Descending Toronto Center
02:33PM 43.1667 -79.3167 360° North 450 518 15,600 -1,500 Descending Toronto Center
02:34PM 43.2833 -79.3333 354° North 420 483 14,100 -1,500 Descending Toronto Center
02:35PM 43.3667 -79.3833 336° Northwest 360 414 12,600 -1,440 Descending Toronto Center
02:36PM 43.4500 -79.4333 336° Northwest 320 368 11,300 -1,440 Descending Toronto Center
02:37PM 43.5333 -79.5000 330° Northwest 320 368 9,800 -1,740 Descending Toronto Center
02:38PM 43.6000 -79.5333 340° North 300 345 7,900 -1,860 Descending Toronto Center
02:39PM 43.6833 -79.5833 337° Northwest 290 334 6,100 -960 Descending Toronto Center
02:40PM 43.7500 -79.5833 360° North 280 322 6,000 -360 Descending Toronto Center
02:41PM 43.8333 -79.5667 North 260 299 5,400 -540 Descending Toronto Center
02:42PM 43.8833 -79.5167 36° Northeast 270 311 5,000 -240 Descending Toronto Center
02:43PM 43.9000 -79.4000 79° East 260 299 5,000 -60 Level Toronto Center
02:44PM 43.8833 -79.3833 144° Southeast 180 207 4,900 -60 Descending Toronto Center
02:45PM 43.8500 -79.3833 180° South 130 150 4,900 -60 Level Toronto Center
02:46PM 43.8167 -79.4000 200° South 110 127 4,800 -480 Descending Toronto Center
02:47PM 43.8000 -79.4500 245° Southwest 110 127 4,000 -720 Descending Toronto Center
02:48PM 43.7833 -79.4667 216° Southwest 110 127 3,400 -600 Descending Toronto Center
02:49PM 43.7667 -79.5000 235° Southwest 110 127 2,800 -660 Descending Toronto Center
02:50PM 43.7333 -79.5333 216° Southwest 120 138 2,100 -720 Descending Toronto Center
02:51PM 43.7167 -79.5667 235° Southwest 130 150 1,400 -720 Descending Toronto Center
02:52PM 43.6833 -79.6167 227° Southwest 130 150 700 -480 Descending Toronto Center
02:53PM 43.6667 -79.6333 216° Southwest 90 104 500 -120 Descending Toronto Center
02:54PM 43.6667 -79.6333 216° Southwest 20 23 500  Level Toronto Center
02:56PM 43.6833 -79.6333 360° North 30 35 500  Level Toronto Center